createdAt,value
2022-10-27T00:02:48.010Z,15.16
2022-10-27T00:07:53.048Z,15.15
2022-10-27T00:12:56.515Z,15.08
2022-10-27T00:17:59.608Z,15.05
2022-10-27T00:23:04.162Z,15.01
2022-10-27T00:28:07.149Z,14.98
2022-10-27T00:33:10.578Z,14.92
2022-10-27T00:38:14.909Z,14.88
2022-10-27T00:43:26.278Z,14.79
2022-10-27T00:48:31.646Z,14.77
2022-10-27T00:53:36.239Z,14.77
2022-10-27T00:58:39.628Z,14.72
2022-10-27T01:03:43.223Z,14.65
2022-10-27T01:08:47.969Z,14.59
2022-10-27T01:13:51.307Z,14.52
2022-10-27T01:19:04.382Z,14.52
2022-10-27T01:24:35.629Z,14.53
2022-10-27T01:30:06.742Z,14.53
2022-10-27T01:35:19.560Z,14.55
2022-10-27T01:40:30.278Z,14.53
2022-10-27T01:45:37.617Z,14.56
2022-10-27T01:50:50.967Z,14.54
2022-10-27T01:56:24.578Z,14.55
2022-10-27T02:01:41.712Z,14.55
2022-10-27T02:06:56.410Z,14.50
2022-10-27T02:12:03.725Z,14.44
2022-10-27T02:17:09.091Z,14.48
2022-10-27T02:22:14.513Z,14.36
2022-10-27T02:27:24.620Z,14.37
2022-10-27T02:32:30.067Z,14.32
2022-10-27T02:37:36.954Z,14.28
2022-10-27T02:42:39.934Z,14.25
2022-10-27T02:47:42.891Z,14.22
2022-10-27T02:52:47.293Z,14.17
2022-10-27T02:57:50.283Z,14.12
2022-10-27T03:02:53.552Z,14.10
2022-10-27T03:07:58.210Z,14.08
2022-10-27T03:13:01.145Z,14.06
2022-10-27T03:18:04.808Z,14.00
2022-10-27T03:23:09.138Z,14.00
2022-10-27T03:28:13.261Z,13.97
2022-10-27T03:33:16.327Z,14.00
2022-10-27T03:38:20.833Z,13.99
2022-10-27T03:43:24.313Z,14.01
2022-10-27T03:48:27.416Z,14.00
2022-10-27T03:53:31.667Z,13.99
2022-10-27T03:58:34.759Z,13.97
2022-10-27T04:03:37.794Z,13.96
2022-10-27T04:08:42.112Z,13.92
2022-10-27T04:13:45.230Z,13.91
2022-10-27T04:18:49.030Z,13.89
2022-10-27T04:23:53.583Z,13.84
2022-10-27T04:28:56.530Z,13.82
2022-10-27T04:34:00.313Z,13.84
2022-10-27T04:39:04.682Z,13.81
2022-10-27T04:44:08.192Z,13.79
2022-10-27T04:49:11.168Z,13.73
2022-10-27T04:54:15.504Z,13.75
2022-10-27T04:59:18.649Z,13.70
2022-10-27T05:04:21.622Z,13.73
2022-10-27T05:09:26.106Z,13.75
2022-10-27T05:14:29.070Z,13.78
2022-10-27T05:19:32.240Z,13.80
2022-10-27T05:24:36.540Z,13.80
2022-10-27T05:29:39.677Z,13.82
2022-10-27T05:34:43.271Z,13.85
2022-10-27T05:39:47.617Z,13.82
2022-10-27T05:44:50.658Z,13.85
2022-10-27T05:49:53.660Z,13.89
2022-10-27T05:54:57.971Z,13.94
2022-10-27T06:00:00.991Z,13.99
2022-10-27T06:05:03.946Z,14.05
2022-10-27T06:10:09.054Z,14.11
2022-10-27T06:15:12.630Z,14.15
2022-10-27T06:20:16.062Z,14.20
2022-10-27T06:25:20.638Z,14.27
2022-10-27T06:30:23.976Z,14.32
2022-10-27T06:35:26.939Z,14.30
2022-10-27T06:40:31.507Z,14.29
2022-10-27T06:45:34.547Z,14.27
2022-10-27T06:50:38.191Z,14.25
2022-10-27T06:55:43.028Z,14.31
2022-10-27T07:00:46.188Z,14.34
2022-10-27T07:05:49.240Z,14.33
2022-10-27T07:10:55.540Z,14.41
2022-10-27T07:15:58.819Z,14.44
2022-10-27T07:21:02.019Z,14.42
2022-10-27T07:26:07.056Z,14.39
2022-10-27T07:31:10.194Z,14.30
2022-10-27T07:36:13.279Z,14.41
2022-10-27T07:41:17.676Z,14.44
2022-10-27T07:46:20.898Z,14.46
2022-10-27T07:51:24.004Z,14.61
2022-10-27T07:56:28.326Z,14.65
2022-10-27T08:01:31.568Z,14.69
2022-10-27T08:06:34.621Z,14.76
2022-10-27T08:11:39.125Z,14.86
2022-10-27T08:16:42.293Z,15.00
2022-10-27T08:21:45.589Z,15.14
2022-10-27T08:26:50.201Z,15.30
2022-10-27T08:31:53.395Z,15.49
2022-10-27T08:36:56.388Z,15.67
2022-10-27T08:42:07.080Z,15.87
2022-10-27T08:47:16.332Z,16.09
2022-10-27T08:52:28.346Z,16.42
2022-10-27T08:57:34.648Z,16.61
2022-10-27T09:02:57.693Z,16.81
2022-10-27T09:08:07.884Z,16.97
2022-10-27T09:13:26.836Z,17.14
2022-10-27T09:18:34.408Z,17.22
2022-10-27T09:23:40.886Z,17.31
2022-10-27T09:28:49.429Z,17.46
2022-10-27T09:34:00.046Z,17.64
2022-10-27T09:39:03.302Z,17.66
2022-10-27T09:44:19.067Z,17.70
2022-10-27T09:49:25.071Z,17.79
2022-10-27T09:54:33.685Z,18.04
2022-10-27T09:59:39.181Z,18.41
2022-10-27T10:04:47.015Z,18.55
2022-10-27T10:10:02.664Z,18.71
2022-10-27T10:15:21.047Z,18.75
2022-10-27T10:20:31.739Z,18.78
2022-10-27T10:25:41.970Z,18.81
2022-10-27T10:30:51.596Z,18.80
2022-10-27T10:35:55.250Z,18.86
2022-10-27T10:41:05.847Z,18.88
2022-10-27T10:46:21.456Z,18.93
2022-10-27T10:51:28.806Z,19.04
2022-10-27T10:56:33.527Z,19.15
2022-10-27T11:01:43.856Z,19.24
2022-10-27T11:07:03.178Z,19.47
2022-10-27T11:12:12.063Z,19.75
2022-10-27T11:17:19.646Z,19.87
2022-10-27T11:22:26.007Z,19.89
2022-10-27T11:27:36.275Z,20.11
2022-10-27T11:32:51.363Z,20.18
2022-10-27T11:38:03.457Z,20.09
2022-10-27T11:43:12.521Z,19.91
2022-10-27T11:48:24.150Z,19.81
2022-10-27T11:53:27.294Z,19.31
2022-10-27T11:58:40.689Z,18.87
2022-10-27T12:04:01.106Z,18.67
2022-10-27T12:09:16.143Z,18.54
2022-10-27T12:14:29.666Z,18.48
2022-10-27T12:19:39.232Z,18.63
2022-10-27T12:24:50.019Z,19.15
2022-10-27T12:29:57.999Z,19.44
2022-10-27T12:35:09.541Z,19.53
2022-10-27T12:40:19.343Z,19.51
2022-10-27T12:45:36.897Z,19.61
2022-10-27T12:50:49.739Z,19.74
2022-10-27T12:56:00.231Z,19.79
2022-10-27T13:01:13.178Z,19.86
2022-10-27T13:06:37.279Z,19.87
2022-10-27T13:12:13.443Z,20.02
2022-10-27T13:17:28.626Z,20.11
2022-10-27T13:22:38.908Z,20.17
2022-10-27T13:27:48.680Z,20.16
2022-10-27T13:32:55.997Z,20.14
2022-10-27T13:38:25.915Z,20.17
2022-10-27T13:43:47.281Z,20.24
2022-10-27T13:48:52.858Z,20.30
2022-10-27T13:53:57.578Z,20.35
2022-10-27T13:59:10.865Z,20.35
2022-10-27T14:04:47.302Z,20.31
2022-10-27T14:09:52.725Z,20.30
2022-10-27T14:15:00.738Z,20.36
2022-10-27T14:20:07.695Z,20.33
2022-10-27T14:25:27.138Z,20.36
2022-10-27T14:30:30.795Z,20.37
2022-10-27T14:35:33.961Z,20.39
2022-10-27T14:40:40.531Z,20.43
2022-10-27T14:45:44.472Z,20.47
2022-10-27T14:50:47.727Z,20.50
2022-10-27T14:56:03.737Z,20.61
2022-10-27T15:01:06.883Z,20.74
2022-10-27T15:06:18.822Z,20.70
2022-10-27T15:11:26.260Z,20.77
2022-10-27T15:16:32.676Z,20.81
2022-10-27T15:21:35.829Z,20.79
2022-10-27T15:26:40.891Z,20.85
2022-10-27T15:31:45.238Z,20.86
2022-10-27T15:36:48.216Z,20.85
2022-10-27T15:41:54.171Z,20.85
2022-10-27T15:46:57.193Z,20.86
2022-10-27T15:52:03.779Z,20.68
2022-10-27T15:57:31.440Z,20.58
2022-10-27T16:02:36.637Z,20.41
2022-10-27T16:07:39.665Z,20.27
2022-10-27T16:12:45.193Z,20.10
2022-10-27T16:17:51.158Z,19.95
2022-10-27T16:22:55.113Z,19.74
2022-10-27T16:28:00.873Z,19.64
2022-10-27T16:33:05.470Z,19.51
2022-10-27T16:38:10.183Z,19.39
2022-10-27T16:43:22.796Z,19.26
2022-10-27T16:48:25.859Z,19.15
2022-10-27T16:53:28.875Z,19.03
2022-10-27T16:58:38.914Z,18.91
2022-10-27T17:03:41.861Z,18.83
2022-10-27T17:08:45.127Z,18.72
2022-10-27T17:13:49.504Z,18.65
2022-10-27T17:18:52.475Z,18.55
2022-10-27T17:23:55.506Z,18.44
2022-10-27T17:28:59.952Z,18.35
2022-10-27T17:34:02.957Z,18.29
2022-10-27T17:39:07.960Z,18.20
2022-10-27T17:44:12.670Z,18.17
2022-10-27T17:49:15.995Z,18.12
2022-10-27T17:54:24.703Z,18.04
2022-10-27T17:59:32.300Z,18.00
2022-10-27T18:04:36.634Z,17.92
2022-10-27T18:09:39.801Z,17.91
2022-10-27T18:14:44.328Z,17.84
2022-10-27T18:19:47.618Z,17.82
2022-10-27T18:24:50.666Z,17.79
2022-10-27T18:29:55.226Z,17.73
2022-10-27T18:34:58.268Z,17.67
2022-10-27T18:40:01.704Z,17.65
2022-10-27T18:45:07.297Z,17.61
2022-10-27T18:50:10.849Z,17.61
2022-10-27T18:55:14.159Z,17.62
2022-10-27T19:00:19.324Z,17.61
2022-10-27T19:05:23.200Z,17.66
2022-10-27T19:10:26.194Z,17.68
2022-10-27T19:15:31.703Z,17.67
2022-10-27T19:20:34.974Z,17.70
2022-10-27T19:25:38.310Z,17.70
2022-10-27T19:30:43.086Z,17.69
2022-10-27T19:35:46.272Z,17.64
2022-10-27T19:40:49.525Z,17.62
2022-10-27T19:45:56.499Z,17.55
2022-10-27T19:51:01.416Z,17.54
2022-10-27T19:56:04.751Z,17.54
2022-10-27T20:01:20.000Z,17.49
2022-10-27T20:06:23.070Z,17.50
2022-10-27T20:11:27.747Z,17.51
2022-10-27T20:16:34.410Z,17.41
2022-10-27T20:21:40.656Z,17.53
2022-10-27T20:31:56.703Z,17.27
2022-10-27T20:36:59.914Z,17.19
2022-10-27T20:42:03.271Z,17.17
2022-10-27T20:47:08.297Z,17.32
2022-10-27T20:52:11.287Z,17.36
2022-10-27T20:57:14.567Z,17.40
2022-10-27T21:02:19.403Z,17.42
2022-10-27T21:07:22.537Z,17.39
2022-10-27T21:12:25.535Z,17.34
2022-10-27T21:17:30.093Z,17.30
2022-10-27T21:22:33.198Z,17.27
2022-10-27T21:27:36.254Z,17.31
2022-10-27T21:32:40.738Z,17.34
2022-10-27T21:37:43.650Z,17.38
2022-10-27T21:42:46.757Z,17.34
2022-10-27T21:47:51.452Z,17.26
2022-10-27T21:52:54.706Z,17.06
2022-10-27T21:57:57.681Z,17.00
2022-10-27T22:03:02.180Z,16.95
2022-10-27T22:08:05.857Z,16.87
2022-10-27T22:13:09.061Z,16.85
2022-10-27T22:18:14.253Z,16.84
2022-10-27T22:23:17.483Z,16.78
2022-10-27T22:28:20.647Z,16.71
2022-10-27T22:33:25.032Z,16.55
2022-10-27T22:38:28.126Z,16.56
2022-10-27T22:43:32.056Z,16.51
2022-10-27T22:48:37.494Z,16.46
2022-10-27T22:53:42.273Z,16.35
2022-10-27T22:58:48.150Z,16.23
2022-10-27T23:03:56.951Z,16.01
2022-10-27T23:09:01.437Z,15.89
2022-10-27T23:14:04.647Z,15.81
2022-10-27T23:19:09.210Z,15.76
2022-10-27T23:24:12.206Z,15.77
2022-10-27T23:29:16.827Z,15.75
2022-10-27T23:34:21.362Z,15.77
2022-10-27T23:39:24.553Z,15.75
2022-10-27T23:44:27.538Z,15.68
2022-10-27T23:49:31.875Z,15.67
2022-10-27T23:54:34.862Z,15.63
2022-10-27T23:59:37.882Z,15.60
